sensor_id;sensor_type;location;lat;lon;timestamp;pressure;altitude;pressure_sealevel;temperature;humidity
21879;BME280;27908;42.708;23.278;2023-02-21T00:00:04;62868.75;;;4.12;92.00
21879;BME280;27908;42.708;23.278;2023-02-21T00:02:48;62858.22;;;4.17;91.83
21879;BME280;27908;42.708;23.278;2023-02-21T00:05:32;62860.59;;;4.04;92.71
21879;BME280;27908;42.708;23.278;2023-02-21T00:08:16;62886.72;;;3.98;92.28
21879;BME280;27908;42.708;23.278;2023-02-21T00:11:00;62827.81;;;4.02;92.78
21879;BME280;27908;42.708;23.278;2023-02-21T00:13:44;62846.94;;;4.01;93.62
21879;BME280;27908;42.708;23.278;2023-02-21T00:16:28;62884.84;;;4.08;93.40
21879;BME280;27908;42.708;23.278;2023-02-21T00:19:12;62878.94;;;3.83;93.05
21879;BME280;27908;42.708;23.278;2023-02-21T00:21:56;62850.44;;;3.99;93.22
21879;BME280;27908;42.708;23.278;2023-02-21T00:24:40;62866.41;;;3.86;94.11
21879;BME280;27908;42.708;23.278;2023-02-21T00:27:24;62799.34;;;3.84;94.41
21879;BME280;27908;42.708;23.278;2023-02-21T00:30:08;62842.16;;;3.82;94.93
21879;BME280;27908;42.708;23.278;2023-02-21T00:32:52;62839.19;;;3.86;94.64
21879;BME280;27908;42.708;23.278;2023-02-21T00:35:36;62837.91;;;3.65;94.69
21879;BME280;27908;42.708;23.278;2023-02-21T00:38:20;62850.66;;;3.75;94.19
21879;BME280;27908;42.708;23.278;2023-02-21T00:41:04;62833.03;;;3.78;95.09
21879;BME280;27908;42.708;23.278;2023-02-21T00:43:48;62822.84;;;3.68;94.86
21879;BME280;27908;42.708;23.278;2023-02-21T00:46:32;62860.44;;;3.92;93.71
21879;BME280;27908;42.708;23.278;2023-02-21T00:49:16;62848.34;;;3.92;93.88
21879;BME280;27908;42.708;23.278;2023-02-21T00:51:59;62881.56;;;3.90;94.10
21879;BME280;27908;42.708;23.278;2023-02-21T00:54:43;62839.13;;;3.81;94.02
21879;BME280;27908;42.708;23.278;2023-02-21T00:57:27;62839.53;;;3.74;94.18
21879;BME280;27908;42.708;23.278;2023-02-21T01:00:23;62886.78;;;4.03;94.48
21879;BME280;27908;42.708;23.278;2023-02-21T01:03:08;62846.81;;;3.91;94.07
21879;BME280;27908;42.708;23.278;2023-02-21T01:05:53;62809.53;;;3.91;93.76
21879;BME280;27908;42.708;23.278;2023-02-21T01:08:44;62870.84;;;4.19;93.70
21879;BME280;27908;42.708;23.278;2023-02-21T01:29:39;62952.13;;;4.66;90.97
21879;BME280;27908;42.708;23.278;2023-02-21T01:32:23;62944.81;;;4.44;90.65
21879;BME280;27908;42.708;23.278;2023-02-21T01:35:07;62872.84;;;4.16;92.30
21879;BME280;27908;42.708;23.278;2023-02-21T01:37:51;62898.72;;;3.92;93.38
21879;BME280;27908;42.708;23.278;2023-02-21T01:40:38;62891.09;;;4.24;92.88
21879;BME280;27908;42.708;23.278;2023-02-21T01:43:25;62921.94;;;4.32;92.51
21879;BME280;27908;42.708;23.278;2023-02-21T01:46:11;62892.19;;;4.30;92.61
21879;BME280;27908;42.708;23.278;2023-02-21T01:48:56;62905.34;;;4.35;92.67
21879;BME280;27908;42.708;23.278;2023-02-21T01:51:42;62854.13;;;4.13;92.92
21879;BME280;27908;42.708;23.278;2023-02-21T01:54:31;62886.09;;;4.29;92.55
21879;BME280;27908;42.708;23.278;2023-02-21T01:57:17;62900.78;;;4.33;92.65
21879;BME280;27908;42.708;23.278;2023-02-21T02:00:06;62889.47;;;4.18;93.46
21879;BME280;27908;42.708;23.278;2023-02-21T02:03:02;62888.03;;;4.21;93.11
21879;BME280;27908;42.708;23.278;2023-02-21T02:05:53;62898.59;;;4.22;93.11
21879;BME280;27908;42.708;23.278;2023-02-21T02:08:37;62860.25;;;4.16;93.75
21879;BME280;27908;42.708;23.278;2023-02-21T02:17:25;62847.47;;;4.04;95.75
21879;BME280;27908;42.708;23.278;2023-02-21T02:36:13;62838.53;;;3.73;97.45
21879;BME280;27908;42.708;23.278;2023-02-21T02:44:52;62832.63;;;3.85;96.62
21879;BME280;27908;42.708;23.278;2023-02-21T02:47:29;62850.84;;;3.90;96.08
21879;BME280;27908;42.708;23.278;2023-02-21T02:49:56;62877.50;;;3.87;96.03
21879;BME280;27908;42.708;23.278;2023-02-21T02:52:23;62860.47;;;3.94;95.41
21879;BME280;27908;42.708;23.278;2023-02-21T02:55:03;62870.97;;;3.88;95.46
21879;BME280;27908;42.708;23.278;2023-02-21T02:57:31;62847.41;;;3.99;95.09
21879;BME280;27908;42.708;23.278;2023-02-21T03:00:06;62865.28;;;4.16;94.16
21879;BME280;27908;42.708;23.278;2023-02-21T03:05:52;62861.81;;;4.20;93.76
21879;BME280;27908;42.708;23.278;2023-02-21T03:08:39;62943.38;;;4.50;91.19
21879;BME280;27908;42.708;23.278;2023-02-21T03:11:16;62911.59;;;4.51;91.78
21879;BME280;27908;42.708;23.278;2023-02-21T03:14:06;62991.56;;;4.33;91.45
21879;BME280;27908;42.708;23.278;2023-02-21T03:16:37;62922.88;;;4.64;90.09
21879;BME280;27908;42.708;23.278;2023-02-21T03:19:13;62929.31;;;4.56;89.95
21879;BME280;27908;42.708;23.278;2023-02-21T03:21:50;62937.03;;;4.68;90.90
21879;BME280;27908;42.708;23.278;2023-02-21T03:24:18;62951.16;;;4.67;90.36
21879;BME280;27908;42.708;23.278;2023-02-21T03:26:47;62899.56;;;4.57;90.38
21879;BME280;27908;42.708;23.278;2023-02-21T03:29:16;62900.44;;;4.45;91.12
21879;BME280;27908;42.708;23.278;2023-02-21T03:31:46;62904.66;;;4.61;91.52
21879;BME280;27908;42.708;23.278;2023-02-21T03:34:13;62924.38;;;4.63;91.10
21879;BME280;27908;42.708;23.278;2023-02-21T03:36:39;62920.25;;;4.57;90.69
21879;BME280;27908;42.708;23.278;2023-02-21T03:39:05;62948.91;;;4.48;91.79
21879;BME280;27908;42.708;23.278;2023-02-21T03:41:31;62893.25;;;4.36;92.07
21879;BME280;27908;42.708;23.278;2023-02-21T03:43:56;62881.16;;;4.36;92.93
21879;BME280;27908;42.708;23.278;2023-02-21T03:46:22;62887.09;;;4.27;93.28
21879;BME280;27908;42.708;23.278;2023-02-21T03:48:47;62855.34;;;4.28;93.24
21879;BME280;27908;42.708;23.278;2023-02-21T03:51:13;62881.44;;;4.20;93.29
21879;BME280;27908;42.708;23.278;2023-02-21T03:53:38;62878.41;;;4.19;92.75
21879;BME280;27908;42.708;23.278;2023-02-21T03:56:04;62887.50;;;4.21;93.05
21879;BME280;27908;42.708;23.278;2023-02-21T03:58:29;62875.75;;;4.09;93.40
21879;BME280;27908;42.708;23.278;2023-02-21T04:00:55;62898.94;;;4.07;92.65
21879;BME280;27908;42.708;23.278;2023-02-21T04:03:21;62875.09;;;3.96;93.24
21879;BME280;27908;42.708;23.278;2023-02-21T04:05:47;62856.38;;;3.90;94.42
21879;BME280;27908;42.708;23.278;2023-02-21T04:08:12;62816.97;;;3.82;93.76
21879;BME280;27908;42.708;23.278;2023-02-21T04:10:38;62880.41;;;3.80;95.14
21879;BME280;27908;42.708;23.278;2023-02-21T04:13:03;62840.59;;;3.78;94.97
21879;BME280;27908;42.708;23.278;2023-02-21T04:15:29;62808.72;;;3.66;95.26
21879;BME280;27908;42.708;23.278;2023-02-21T04:17:54;62797.53;;;3.60;96.18
21879;BME280;27908;42.708;23.278;2023-02-21T04:20:19;62791.88;;;3.50;96.16
21879;BME280;27908;42.708;23.278;2023-02-21T04:22:45;62951.09;;;3.55;95.87
21879;BME280;27908;42.708;23.278;2023-02-21T04:25:10;62794.91;;;3.51;96.31
21879;BME280;27908;42.708;23.278;2023-02-21T04:27:36;62771.16;;;3.45;97.50
21879;BME280;27908;42.708;23.278;2023-02-21T04:30:02;62830.44;;;3.34;96.75
21879;BME280;27908;42.708;23.278;2023-02-21T04:32:27;62813.88;;;3.37;97.21
21879;BME280;27908;42.708;23.278;2023-02-21T04:34:53;62794.06;;;3.25;97.78
21879;BME280;27908;42.708;23.278;2023-02-21T04:37:18;62802.81;;;3.39;98.51
21879;BME280;27908;42.708;23.278;2023-02-21T04:39:44;62792.84;;;3.49;97.89
21879;BME280;27908;42.708;23.278;2023-02-21T04:42:09;62816.56;;;3.50;98.08
21879;BME280;27908;42.708;23.278;2023-02-21T04:44:35;62776.66;;;3.40;97.61
21879;BME280;27908;42.708;23.278;2023-02-21T04:47:01;62785.69;;;3.37;98.00
21879;BME280;27908;42.708;23.278;2023-02-21T04:49:26;62807.41;;;3.43;98.22
21879;BME280;27908;42.708;23.278;2023-02-21T04:51:52;62827.59;;;3.48;97.83
21879;BME280;27908;42.708;23.278;2023-02-21T04:54:18;62766.03;;;3.37;97.83
21879;BME280;27908;42.708;23.278;2023-02-21T04:56:44;62777.44;;;3.24;98.92
21879;BME280;27908;42.708;23.278;2023-02-21T04:59:09;62746.56;;;3.11;99.03
21879;BME280;27908;42.708;23.278;2023-02-21T05:01:35;62709.59;;;2.92;98.61
21879;BME280;27908;42.708;23.278;2023-02-21T05:04:00;62723.50;;;2.79;100.00
21879;BME280;27908;42.708;23.278;2023-02-21T05:06:27;62737.13;;;2.80;100.00
21879;BME280;27908;42.708;23.278;2023-02-21T05:08:53;62687.56;;;2.61;100.00
21879;BME280;27908;42.708;23.278;2023-02-21T05:11:20;62728.84;;;2.65;100.00
21879;BME280;27908;42.708;23.278;2023-02-21T05:13:46;62691.16;;;2.67;100.00
21879;BME280;27908;42.708;23.278;2023-02-21T05:16:11;62688.03;;;2.59;100.00
21879;BME280;27908;42.708;23.278;2023-02-21T05:18:37;62701.56;;;2.55;100.00
21879;BME280;27908;42.708;23.278;2023-02-21T05:21:06;62696.59;;;2.60;100.00
21879;BME280;27908;42.708;23.278;2023-02-21T05:23:32;62725.88;;;2.69;100.00
21879;BME280;27908;42.708;23.278;2023-02-21T05:26:18;62721.91;;;2.73;100.00
21879;BME280;27908;42.708;23.278;2023-02-21T05:28:43;62761.78;;;2.82;100.00
21879;BME280;27908;42.708;23.278;2023-02-21T05:31:09;62719.09;;;2.87;100.00
21879;BME280;27908;42.708;23.278;2023-02-21T05:33:34;62733.19;;;2.88;100.00
21879;BME280;27908;42.708;23.278;2023-02-21T05:36:00;62716.91;;;3.14;100.00
21879;BME280;27908;42.708;23.278;2023-02-21T05:38:26;62758.25;;;3.20;100.00
21879;BME280;27908;42.708;23.278;2023-02-21T05:40:52;62749.22;;;3.21;100.00
21879;BME280;27908;42.708;23.278;2023-02-21T05:43:17;62764.41;;;3.28;100.00
21879;BME280;27908;42.708;23.278;2023-02-21T05:45:43;62800.94;;;3.49;98.33
21879;BME280;27908;42.708;23.278;2023-02-21T05:48:08;62790.91;;;3.54;98.44
21879;BME280;27908;42.708;23.278;2023-02-21T05:50:34;62829.84;;;3.65;97.73
21879;BME280;27908;42.708;23.278;2023-02-21T05:52:59;62825.38;;;3.70;97.54
21879;BME280;27908;42.708;23.278;2023-02-21T05:55:26;62819.50;;;3.82;96.15
21879;BME280;27908;42.708;23.278;2023-02-21T05:57:52;62861.44;;;3.93;95.62
21879;BME280;27908;42.708;23.278;2023-02-21T06:00:21;62865.13;;;4.04;95.14
21879;BME280;27908;42.708;23.278;2023-02-21T06:02:51;62939.66;;;4.00;95.44
21879;BME280;27908;42.708;23.278;2023-02-21T06:05:17;62876.88;;;4.18;95.11
21879;BME280;27908;42.708;23.278;2023-02-21T06:07:43;62891.16;;;4.29;92.66
21879;BME280;27908;42.708;23.278;2023-02-21T06:10:09;62906.28;;;4.29;92.61
21879;BME280;27908;42.708;23.278;2023-02-21T06:12:34;62894.94;;;4.52;92.35
21879;BME280;27908;42.708;23.278;2023-02-21T06:15:01;63033.31;;;4.61;90.84
21879;BME280;27908;42.708;23.278;2023-02-21T06:17:26;62924.38;;;4.66;90.62
21879;BME280;27908;42.708;23.278;2023-02-21T06:19:54;62910.91;;;4.77;89.85
21879;BME280;27908;42.708;23.278;2023-02-21T06:22:20;62961.03;;;4.92;88.92
21879;BME280;27908;42.708;23.278;2023-02-21T06:24:45;62958.66;;;5.01;88.69
21879;BME280;27908;42.708;23.278;2023-02-21T06:27:11;63000.66;;;5.10;88.50
21879;BME280;27908;42.708;23.278;2023-02-21T06:29:36;63002.72;;;5.15;87.62
21879;BME280;27908;42.708;23.278;2023-02-21T06:32:02;63019.06;;;5.28;88.28
21879;BME280;27908;42.708;23.278;2023-02-21T06:34:27;63036.34;;;5.37;87.45
21879;BME280;27908;42.708;23.278;2023-02-21T06:36:54;63007.16;;;5.46;86.64
21879;BME280;27908;42.708;23.278;2023-02-21T06:39:21;63047.25;;;5.60;87.19
21879;BME280;27908;42.708;23.278;2023-02-21T06:41:48;63031.63;;;5.65;85.96
21879;BME280;27908;42.708;23.278;2023-02-21T06:44:14;63052.59;;;5.85;84.29
21879;BME280;27908;42.708;23.278;2023-02-21T06:46:40;63083.09;;;5.97;83.91
21879;BME280;27908;42.708;23.278;2023-02-21T06:49:06;63055.28;;;6.00;82.91
21879;BME280;27908;42.708;23.278;2023-02-21T06:51:36;63112.25;;;6.25;82.46
21879;BME280;27908;42.708;23.278;2023-02-21T06:54:02;63098.19;;;6.36;82.41
21879;BME280;27908;42.708;23.278;2023-02-21T06:56:28;63129.63;;;6.39;82.08
21879;BME280;27908;42.708;23.278;2023-02-21T06:58:54;63153.59;;;6.55;81.53
21879;BME280;27908;42.708;23.278;2023-02-21T07:01:19;63181.09;;;6.70;81.18
21879;BME280;27908;42.708;23.278;2023-02-21T07:03:45;63178.13;;;6.76;80.32
21879;BME280;27908;42.708;23.278;2023-02-21T07:06:12;63189.94;;;6.93;79.32
21879;BME280;27908;42.708;23.278;2023-02-21T07:08:37;63164.88;;;6.71;78.20
21879;BME280;27908;42.708;23.278;2023-02-21T07:11:03;63227.59;;;7.07;77.80
21879;BME280;27908;42.708;23.278;2023-02-21T07:13:30;63208.03;;;7.25;77.28
21879;BME280;27908;42.708;23.278;2023-02-21T07:15:56;63286.47;;;7.56;75.88
21879;BME280;27908;42.708;23.278;2023-02-21T07:18:21;63269.78;;;7.62;74.74
21879;BME280;27908;42.708;23.278;2023-02-21T07:20:46;63297.38;;;7.81;75.12
21879;BME280;27908;42.708;23.278;2023-02-21T07:23:12;63327.34;;;7.86;74.27
21879;BME280;27908;42.708;23.278;2023-02-21T07:25:37;63281.28;;;7.93;73.61
21879;BME280;27908;42.708;23.278;2023-02-21T07:28:03;63345.41;;;8.11;74.35
21879;BME280;27908;42.708;23.278;2023-02-21T07:30:28;63344.94;;;8.13;73.80
21879;BME280;27908;42.708;23.278;2023-02-21T07:32:55;63374.06;;;8.31;71.55
21879;BME280;27908;42.708;23.278;2023-02-21T07:35:21;63367.59;;;8.42;71.55
21879;BME280;27908;42.708;23.278;2023-02-21T07:37:46;63370.81;;;8.59;70.11
21879;BME280;27908;42.708;23.278;2023-02-21T07:40:12;63429.81;;;8.67;69.41
21879;BME280;27908;42.708;23.278;2023-02-21T07:42:40;63439.13;;;8.84;69.68
21879;BME280;27908;42.708;23.278;2023-02-21T07:45:08;63442.84;;;8.97;68.17
21879;BME280;27908;42.708;23.278;2023-02-21T07:47:34;63458.75;;;9.12;68.93
21879;BME280;27908;42.708;23.278;2023-02-21T07:49:59;63506.16;;;9.23;67.68
21879;BME280;27908;42.708;23.278;2023-02-21T07:52:24;63491.03;;;9.36;66.97
21879;BME280;27908;42.708;23.278;2023-02-21T07:54:50;63533.81;;;9.40;66.72
21879;BME280;27908;42.708;23.278;2023-02-21T07:57:16;63550.13;;;9.46;65.35
21879;BME280;27908;42.708;23.278;2023-02-21T07:59:41;63524.72;;;9.49;65.03
21879;BME280;27908;42.708;23.278;2023-02-21T08:02:08;63496.81;;;9.54;65.58
21879;BME280;27908;42.708;23.278;2023-02-21T08:04:35;63518.66;;;9.53;65.26
21879;BME280;27908;42.708;23.278;2023-02-21T08:07:02;63509.53;;;9.54;65.08
21879;BME280;27908;42.708;23.278;2023-02-21T08:09:28;63542.63;;;9.56;66.35
21879;BME280;27908;42.708;23.278;2023-02-21T08:11:53;63524.34;;;9.60;66.23
21879;BME280;27908;42.708;23.278;2023-02-21T08:14:18;63534.47;;;9.53;66.58
21879;BME280;27908;42.708;23.278;2023-02-21T08:16:44;63508.06;;;9.59;65.86
21879;BME280;27908;42.708;23.278;2023-02-21T08:19:09;63569.16;;;9.64;65.47
21879;BME280;27908;42.708;23.278;2023-02-21T08:21:35;63539.19;;;9.67;66.54
21879;BME280;27908;42.708;23.278;2023-02-21T08:24:00;63500.81;;;9.48;65.41
21879;BME280;27908;42.708;23.278;2023-02-21T08:26:26;63517.19;;;9.56;66.51
21879;BME280;27908;42.708;23.278;2023-02-21T08:28:51;63521.16;;;9.48;66.96
21879;BME280;27908;42.708;23.278;2023-02-21T08:31:17;63559.50;;;9.65;67.19
21879;BME280;27908;42.708;23.278;2023-02-21T08:33:44;63559.09;;;9.74;66.03
21879;BME280;27908;42.708;23.278;2023-02-21T08:36:09;63523.03;;;9.81;66.20
21879;BME280;27908;42.708;23.278;2023-02-21T08:38:34;63558.16;;;9.83;65.52
21879;BME280;27908;42.708;23.278;2023-02-21T08:41:00;63617.34;;;9.93;65.54
21879;BME280;27908;42.708;23.278;2023-02-21T08:43:27;63602.66;;;9.99;66.05
21879;BME280;27908;42.708;23.278;2023-02-21T08:45:53;63622.16;;;10.15;64.29
21879;BME280;27908;42.708;23.278;2023-02-21T08:48:18;63593.78;;;10.27;63.84
21879;BME280;27908;42.708;23.278;2023-02-21T08:50:44;63636.19;;;10.41;63.72
21879;BME280;27908;42.708;23.278;2023-02-21T08:53:13;63630.03;;;10.37;62.58
21879;BME280;27908;42.708;23.278;2023-02-21T08:55:38;63670.97;;;10.55;62.37
21879;BME280;27908;42.708;23.278;2023-02-21T08:58:04;63665.94;;;10.62;62.21
21879;BME280;27908;42.708;23.278;2023-02-21T09:00:29;63703.19;;;10.66;62.72
21879;BME280;27908;42.708;23.278;2023-02-21T09:02:56;63666.13;;;10.79;62.95
21879;BME280;27908;42.708;23.278;2023-02-21T09:05:29;63773.59;;;10.72;60.91
21879;BME280;27908;42.708;23.278;2023-02-21T09:07:56;63704.47;;;10.89;60.46
21879;BME280;27908;42.708;23.278;2023-02-21T09:10:29;63744.28;;;10.93;59.72
21879;BME280;27908;42.708;23.278;2023-02-21T09:12:58;63698.97;;;11.01;61.15
21879;BME280;27908;42.708;23.278;2023-02-21T09:15:23;63732.88;;;11.26;60.35
21879;BME280;27908;42.708;23.278;2023-02-21T09:17:49;63753.88;;;11.32;59.99
21879;BME280;27908;42.708;23.278;2023-02-21T09:20:17;63781.72;;;11.61;59.05
21879;BME280;27908;42.708;23.278;2023-02-21T09:22:44;63817.22;;;11.90;59.21
21879;BME280;27908;42.708;23.278;2023-02-21T09:25:10;63923.28;;;12.20;57.89
21879;BME280;27908;42.708;23.278;2023-02-21T09:27:40;63924.50;;;12.39;56.89
21879;BME280;27908;42.708;23.278;2023-02-21T09:30:14;63936.50;;;12.62;55.82
21879;BME280;27908;42.708;23.278;2023-02-21T09:32:40;63942.16;;;12.65;54.18
21879;BME280;27908;42.708;23.278;2023-02-21T09:35:07;63975.19;;;12.92;54.09
21879;BME280;27908;42.708;23.278;2023-02-21T09:37:37;64046.56;;;13.18;53.62
21879;BME280;27908;42.708;23.278;2023-02-21T09:40:03;64101.31;;;13.66;52.35
21879;BME280;27908;42.708;23.278;2023-02-21T09:42:31;64146.69;;;13.94;51.23
21879;BME280;27908;42.708;23.278;2023-02-21T09:44:57;64186.44;;;14.18;52.28
21879;BME280;27908;42.708;23.278;2023-02-21T09:47:31;64198.53;;;14.51;50.28
21879;BME280;27908;42.708;23.278;2023-02-21T09:50:10;64276.69;;;14.69;48.98
21879;BME280;27908;42.708;23.278;2023-02-21T09:52:37;64307.19;;;14.89;47.48
21879;BME280;27908;42.708;23.278;2023-02-21T09:55:12;64281.63;;;15.01;47.10
21879;BME280;27908;42.708;23.278;2023-02-21T09:57:39;64364.16;;;15.35;44.45
21879;BME280;27908;42.708;23.278;2023-02-21T10:00:34;64466.50;;;15.94;39.18
21879;BME280;27908;42.708;23.278;2023-02-21T10:06:09;64487.00;;;16.35;37.54
21879;BME280;27908;42.708;23.278;2023-02-21T10:08:51;64512.69;;;16.30;37.51
21879;BME280;27908;42.708;23.278;2023-02-21T10:11:35;64553.78;;;16.72;37.71
21879;BME280;27908;42.708;23.278;2023-02-21T10:16:56;64736.53;;;17.54;35.88
21879;BME280;27908;42.708;23.278;2023-02-21T10:19:30;64724.06;;;17.47;34.79
21879;BME280;27908;42.708;23.278;2023-02-21T10:21:59;64749.47;;;17.62;34.14
21879;BME280;27908;42.708;23.278;2023-02-21T10:24:27;64709.69;;;17.53;34.31
21879;BME280;27908;42.708;23.278;2023-02-21T10:26:59;64794.97;;;17.71;34.90
21879;BME280;27908;42.708;23.278;2023-02-21T10:32:02;64768.78;;;17.82;34.58
21879;BME280;27908;42.708;23.278;2023-02-21T10:34:30;64817.94;;;17.95;34.28
21879;BME280;27908;42.708;23.278;2023-02-21T10:37:00;64762.00;;;17.76;34.00
21879;BME280;27908;42.708;23.278;2023-02-21T10:39:34;64803.69;;;18.13;33.59
21879;BME280;27908;42.708;23.278;2023-02-21T10:42:03;64861.66;;;18.29;33.37
21879;BME280;27908;42.708;23.278;2023-02-21T10:44:31;64858.00;;;18.23;32.98
21879;BME280;27908;42.708;23.278;2023-02-21T10:47:13;64744.66;;;17.94;33.70
21879;BME280;27908;42.708;23.278;2023-02-21T10:49:59;64840.72;;;18.04;32.96
21879;BME280;27908;42.708;23.278;2023-02-21T10:52:26;64883.34;;;18.27;33.58
21879;BME280;27908;42.708;23.278;2023-02-21T10:55:21;64942.75;;;18.74;33.52
21879;BME280;27908;42.708;23.278;2023-02-21T10:57:53;64926.66;;;18.68;32.72
21879;BME280;27908;42.708;23.278;2023-02-21T11:00:23;64930.28;;;18.69;33.28
21879;BME280;27908;42.708;23.278;2023-02-21T11:02:54;64953.00;;;18.69;32.22
21879;BME280;27908;42.708;23.278;2023-02-21T11:05:21;64964.59;;;18.87;32.97
21879;BME280;27908;42.708;23.278;2023-02-21T11:10:33;65011.56;;;19.26;32.15
21879;BME280;27908;42.708;23.278;2023-02-21T11:13:20;65005.53;;;18.96;31.63
21879;BME280;27908;42.708;23.278;2023-02-21T11:15:47;65073.03;;;19.21;31.51
21879;BME280;27908;42.708;23.278;2023-02-21T11:18:16;65105.47;;;19.54;31.56
21879;BME280;27908;42.708;23.278;2023-02-21T11:20:42;65014.94;;;19.05;31.55
21879;BME280;27908;42.708;23.278;2023-02-21T11:25:44;65057.06;;;19.25;32.12
21879;BME280;27908;42.708;23.278;2023-02-21T11:30:38;65102.81;;;19.47;30.86
21879;BME280;27908;42.708;23.278;2023-02-21T11:33:07;65087.41;;;19.57;31.46
21879;BME280;27908;42.708;23.278;2023-02-21T11:35:36;65075.78;;;19.36;31.27
21879;BME280;27908;42.708;23.278;2023-02-21T11:38:10;65083.22;;;19.53;32.16
21879;BME280;27908;42.708;23.278;2023-02-21T11:40:53;65134.56;;;19.64;31.68
21879;BME280;27908;42.708;23.278;2023-02-21T11:43:27;65143.38;;;19.63;31.53
21879;BME280;27908;42.708;23.278;2023-02-21T11:48:59;65120.13;;;19.68;31.26
21879;BME280;27908;42.708;23.278;2023-02-21T11:51:48;65004.50;;;18.95;32.13
21879;BME280;27908;42.708;23.278;2023-02-21T11:54:12;65055.72;;;19.46;32.67
21879;BME280;27908;42.708;23.278;2023-02-21T11:57:01;65067.19;;;19.52;32.10
21879;BME280;27908;42.708;23.278;2023-02-21T12:19:07;65047.66;;;19.17;33.04
21879;BME280;27908;42.708;23.278;2023-02-21T12:27:39;65125.50;;;19.83;31.95
21879;BME280;27908;42.708;23.278;2023-02-21T12:35:39;65175.31;;;19.93;31.98
21879;BME280;27908;42.708;23.278;2023-02-21T12:38:17;65091.03;;;19.55;32.32
21879;BME280;27908;42.708;23.278;2023-02-21T12:44:20;65081.06;;;19.43;32.66
21879;BME280;27908;42.708;23.278;2023-02-21T12:46:39;65043.13;;;19.27;32.53
21879;BME280;27908;42.708;23.278;2023-02-21T12:49:15;65066.66;;;19.52;32.50
21879;BME280;27908;42.708;23.278;2023-02-21T12:51:51;65087.34;;;19.49;32.56
21879;BME280;27908;42.708;23.278;2023-02-21T12:54:25;65049.19;;;19.18;32.59
21879;BME280;27908;42.708;23.278;2023-02-21T12:56:53;64998.53;;;19.17;32.35
21879;BME280;27908;42.708;23.278;2023-02-21T13:02:25;65055.13;;;19.38;32.77
21879;BME280;27908;42.708;23.278;2023-02-21T13:05:04;65130.34;;;19.56;32.52
21879;BME280;27908;42.708;23.278;2023-02-21T13:07:33;65071.28;;;19.49;32.20
21879;BME280;27908;42.708;23.278;2023-02-21T13:10:24;65107.09;;;19.60;32.32
21879;BME280;27908;42.708;23.278;2023-02-21T13:13:06;65112.78;;;19.59;32.59
21879;BME280;27908;42.708;23.278;2023-02-21T13:15:34;65122.09;;;19.58;32.80
21879;BME280;27908;42.708;23.278;2023-02-21T13:20:39;65308.41;;;19.97;31.98
21879;BME280;27908;42.708;23.278;2023-02-21T13:26:34;65162.47;;;20.00;31.62
21879;BME280;27908;42.708;23.278;2023-02-21T13:29:15;65092.56;;;19.54;31.71
21879;BME280;27908;42.708;23.278;2023-02-21T13:31:42;65125.72;;;19.59;32.95
21879;BME280;27908;42.708;23.278;2023-02-21T13:34:11;65193.53;;;20.03;32.51
21879;BME280;27908;42.708;23.278;2023-02-21T13:36:44;65171.31;;;20.04;30.96
21879;BME280;27908;42.708;23.278;2023-02-21T13:39:26;65078.72;;;19.65;31.46
21879;BME280;27908;42.708;23.278;2023-02-21T13:42:04;65129.06;;;19.79;31.48
21879;BME280;27908;42.708;23.278;2023-02-21T13:44:40;65221.13;;;20.14;31.38
21879;BME280;27908;42.708;23.278;2023-02-21T13:47:16;65209.84;;;20.23;31.52
21879;BME280;27908;42.708;23.278;2023-02-21T14:08:46;65230.47;;;20.16;30.93
21879;BME280;27908;42.708;23.278;2023-02-21T14:11:20;65214.47;;;20.20;31.13
21879;BME280;27908;42.708;23.278;2023-02-21T14:13:52;65168.00;;;19.89;30.97
21879;BME280;27908;42.708;23.278;2023-02-21T14:21:38;65100.06;;;19.34;31.22
21879;BME280;27908;42.708;23.278;2023-02-21T14:24:44;65000.38;;;18.96;31.00
21879;BME280;27908;42.708;23.278;2023-02-21T14:29:42;65000.16;;;18.82;31.22
21879;BME280;27908;42.708;23.278;2023-02-21T14:39:57;64923.97;;;18.58;31.71
21879;BME280;27908;42.708;23.278;2023-02-21T14:42:48;64915.53;;;18.43;31.48
21879;BME280;27908;42.708;23.278;2023-02-21T14:56:39;64890.16;;;18.36;31.60
21879;BME280;27908;42.708;23.278;2023-02-21T14:59:26;64861.25;;;18.36;31.54
21879;BME280;27908;42.708;23.278;2023-02-21T15:07:10;64948.91;;;18.72;31.29
21879;BME280;27908;42.708;23.278;2023-02-21T15:09:39;65002.66;;;19.18;30.77
21879;BME280;27908;42.708;23.278;2023-02-21T15:12:12;65119.97;;;19.53;30.35
21879;BME280;27908;42.708;23.278;2023-02-21T15:14:40;65139.69;;;19.57;30.31
21879;BME280;27908;42.708;23.278;2023-02-21T15:17:23;65127.44;;;19.72;30.64
21879;BME280;27908;42.708;23.278;2023-02-21T15:20:24;65149.41;;;19.93;29.95
21879;BME280;27908;42.708;23.278;2023-02-21T15:23:01;65159.34;;;20.00;30.19
21879;BME280;27908;42.708;23.278;2023-02-21T15:25:29;65171.34;;;20.09;29.92
21879;BME280;27908;42.708;23.278;2023-02-21T15:27:57;65226.97;;;20.27;30.03
21879;BME280;27908;42.708;23.278;2023-02-21T15:30:52;65417.34;;;21.21;28.86
21879;BME280;27908;42.708;23.278;2023-02-21T15:33:19;65505.84;;;21.41;28.67
21879;BME280;27908;42.708;23.278;2023-02-21T15:35:58;65500.41;;;21.60;28.23
21879;BME280;27908;42.708;23.278;2023-02-21T15:38:35;65405.44;;;21.22;28.92
21879;BME280;27908;42.708;23.278;2023-02-21T15:41:08;65255.34;;;20.59;29.44
21879;BME280;27908;42.708;23.278;2023-02-21T15:43:42;65164.28;;;19.80;29.83
21879;BME280;27908;42.708;23.278;2023-02-21T15:46:19;64992.78;;;19.11;31.02
21879;BME280;27908;42.708;23.278;2023-02-21T15:48:46;64920.38;;;18.60;31.53
21879;BME280;27908;42.708;23.278;2023-02-21T15:51:12;64912.41;;;18.40;31.81
21879;BME280;27908;42.708;23.278;2023-02-21T15:53:38;64818.00;;;18.02;32.51
21879;BME280;27908;42.708;23.278;2023-02-21T15:56:16;64765.72;;;17.84;32.59
21879;BME280;27908;42.708;23.278;2023-02-21T15:59:06;64730.13;;;17.36;33.11
21879;BME280;27908;42.708;23.278;2023-02-21T16:01:32;64653.13;;;17.14;33.73